sensor_id;sensor_type;location;lat;lon;timestamp;temperature;humidity
76967;DHT22;65904;52.278;20.972;2023-09-08T00:00:28;23.10;99.90
76967;DHT22;65904;52.278;20.972;2023-09-08T00:03:30;23.10;99.90
76967;DHT22;65904;52.278;20.972;2023-09-08T00:06:16;23.20;99.90
76967;DHT22;65904;52.278;20.972;2023-09-08T00:09:02;23.20;99.90
76967;DHT22;65904;52.278;20.972;2023-09-08T00:11:49;23.20;99.90
76967;DHT22;65904;52.278;20.972;2023-09-08T00:14:35;23.20;99.90
76967;DHT22;65904;52.278;20.972;2023-09-08T00:17:21;23.20;99.90
76967;DHT22;65904;52.278;20.972;2023-09-08T00:20:07;23.20;99.90
76967;DHT22;65904;52.278;20.972;2023-09-08T00:22:54;23.10;99.90
76967;DHT22;65904;52.278;20.972;2023-09-08T00:25:40;23.20;99.90
76967;DHT22;65904;52.278;20.972;2023-09-08T00:28:29;23.20;99.90
76967;DHT22;65904;52.278;20.972;2023-09-08T00:31:15;23.10;99.90
76967;DHT22;65904;52.278;20.972;2023-09-08T00:34:02;23.10;99.90
76967;DHT22;65904;52.278;20.972;2023-09-08T00:36:48;23.10;99.90
76967;DHT22;65904;52.278;20.972;2023-09-08T00:39:35;23.00;99.90
76967;DHT22;65904;52.278;20.972;2023-09-08T00:42:21;23.00;99.90
76967;DHT22;65904;52.278;20.972;2023-09-08T00:45:09;23.10;99.90
76967;DHT22;65904;52.278;20.972;2023-09-08T00:47:56;23.10;99.90
76967;DHT22;65904;52.278;20.972;2023-09-08T00:50:42;23.10;99.90
76967;DHT22;65904;52.278;20.972;2023-09-08T00:53:28;23.10;99.90
76967;DHT22;65904;52.278;20.972;2023-09-08T00:56:15;23.10;99.90
76967;DHT22;65904;52.278;20.972;2023-09-08T00:59:01;23.10;99.90
76967;DHT22;65904;52.278;20.972;2023-09-08T01:01:50;23.10;99.90
76967;DHT22;65904;52.278;20.972;2023-09-08T01:04:36;23.00;99.90
76967;DHT22;65904;52.278;20.972;2023-09-08T01:07:26;23.00;99.90
76967;DHT22;65904;52.278;20.972;2023-09-08T01:10:15;23.00;99.90
76967;DHT22;65904;52.278;20.972;2023-09-08T01:13:01;23.00;99.90
76967;DHT22;65904;52.278;20.972;2023-09-08T01:15:48;23.00;99.90
76967;DHT22;65904;52.278;20.972;2023-09-08T01:18:35;23.00;99.90
76967;DHT22;65904;52.278;20.972;2023-09-08T01:21:53;22.90;99.90
76967;DHT22;65904;52.278;20.972;2023-09-08T01:25:09;23.00;99.90
76967;DHT22;65904;52.278;20.972;2023-09-08T01:28:00;23.00;99.90
76967;DHT22;65904;52.278;20.972;2023-09-08T01:30:46;23.00;99.90
76967;DHT22;65904;52.278;20.972;2023-09-08T01:33:34;23.00;99.90
76967;DHT22;65904;52.278;20.972;2023-09-08T01:36:20;23.00;99.90
76967;DHT22;65904;52.278;20.972;2023-09-08T01:39:06;23.00;99.90
76967;DHT22;65904;52.278;20.972;2023-09-08T01:41:53;23.00;99.90
76967;DHT22;65904;52.278;20.972;2023-09-08T01:44:40;22.90;99.90
76967;DHT22;65904;52.278;20.972;2023-09-08T01:47:29;23.00;99.90
76967;DHT22;65904;52.278;20.972;2023-09-08T01:50:15;23.00;99.90
76967;DHT22;65904;52.278;20.972;2023-09-08T01:53:06;22.90;99.90
76967;DHT22;65904;52.278;20.972;2023-09-08T01:55:52;22.90;99.90
76967;DHT22;65904;52.278;20.972;2023-09-08T01:58:40;22.90;99.90
76967;DHT22;65904;52.278;20.972;2023-09-08T02:01:26;22.80;99.90
76967;DHT22;65904;52.278;20.972;2023-09-08T02:04:12;22.90;99.90
76967;DHT22;65904;52.278;20.972;2023-09-08T02:06:58;22.90;99.90
76967;DHT22;65904;52.278;20.972;2023-09-08T02:09:44;22.90;99.90
76967;DHT22;65904;52.278;20.972;2023-09-08T02:12:30;22.90;99.90
76967;DHT22;65904;52.278;20.972;2023-09-08T02:15:18;22.90;99.90
76967;DHT22;65904;52.278;20.972;2023-09-08T02:18:05;22.90;99.90
76967;DHT22;65904;52.278;20.972;2023-09-08T02:20:51;22.90;99.90
76967;DHT22;65904;52.278;20.972;2023-09-08T02:23:38;22.90;99.90
76967;DHT22;65904;52.278;20.972;2023-09-08T02:26:24;23.00;99.90
76967;DHT22;65904;52.278;20.972;2023-09-08T02:29:12;22.90;99.90
76967;DHT22;65904;52.278;20.972;2023-09-08T02:31:59;22.90;99.90
76967;DHT22;65904;52.278;20.972;2023-09-08T02:34:45;22.90;99.90
76967;DHT22;65904;52.278;20.972;2023-09-08T02:37:33;22.90;99.90
76967;DHT22;65904;52.278;20.972;2023-09-08T02:40:19;22.80;99.90
76967;DHT22;65904;52.278;20.972;2023-09-08T02:43:06;22.90;99.90
76967;DHT22;65904;52.278;20.972;2023-09-08T02:45:53;22.80;99.90
76967;DHT22;65904;52.278;20.972;2023-09-08T02:48:40;22.80;99.90
76967;DHT22;65904;52.278;20.972;2023-09-08T02:51:26;22.80;99.90
76967;DHT22;65904;52.278;20.972;2023-09-08T02:54:12;22.90;99.90
76967;DHT22;65904;52.278;20.972;2023-09-08T02:56:59;22.90;99.90
76967;DHT22;65904;52.278;20.972;2023-09-08T02:59:48;22.80;99.90
76967;DHT22;65904;52.278;20.972;2023-09-08T03:02:34;22.90;99.90
76967;DHT22;65904;52.278;20.972;2023-09-08T03:05:22;22.90;99.90
76967;DHT22;65904;52.278;20.972;2023-09-08T03:08:08;22.90;99.90
76967;DHT22;65904;52.278;20.972;2023-09-08T03:10:55;22.90;99.90
76967;DHT22;65904;52.278;20.972;2023-09-08T03:13:42;22.80;99.90
76967;DHT22;65904;52.278;20.972;2023-09-08T03:16:28;22.80;99.90
76967;DHT22;65904;52.278;20.972;2023-09-08T03:19:14;22.80;99.90
76967;DHT22;65904;52.278;20.972;2023-09-08T03:22:01;22.80;99.90
76967;DHT22;65904;52.278;20.972;2023-09-08T03:24:47;22.80;99.90
76967;DHT22;65904;52.278;20.972;2023-09-08T03:27:33;22.80;99.90
76967;DHT22;65904;52.278;20.972;2023-09-08T03:30:19;22.90;99.90
76967;DHT22;65904;52.278;20.972;2023-09-08T03:33:05;23.00;99.90
76967;DHT22;65904;52.278;20.972;2023-09-08T03:35:52;23.00;99.90
76967;DHT22;65904;52.278;20.972;2023-09-08T03:38:39;23.00;99.90
76967;DHT22;65904;52.278;20.972;2023-09-08T03:41:26;23.00;99.90
76967;DHT22;65904;52.278;20.972;2023-09-08T03:44:12;23.10;99.90
76967;DHT22;65904;52.278;20.972;2023-09-08T03:46:58;23.10;99.90
76967;DHT22;65904;52.278;20.972;2023-09-08T03:49:44;23.10;99.90
76967;DHT22;65904;52.278;20.972;2023-09-08T03:52:31;23.10;99.90
76967;DHT22;65904;52.278;20.972;2023-09-08T03:55:18;23.10;99.90
76967;DHT22;65904;52.278;20.972;2023-09-08T03:58:05;23.20;99.90
76967;DHT22;65904;52.278;20.972;2023-09-08T04:00:51;21.30;99.90
76967;DHT22;65904;52.278;20.972;2023-09-08T04:03:37;21.10;99.90
76967;DHT22;65904;52.278;20.972;2023-09-08T04:06:23;21.70;99.90
76967;DHT22;65904;52.278;20.972;2023-09-08T04:09:09;22.10;99.90
76967;DHT22;65904;52.278;20.972;2023-09-08T04:11:57;20.30;99.90
76967;DHT22;65904;52.278;20.972;2023-09-08T04:14:43;20.30;99.90
76967;DHT22;65904;52.278;20.972;2023-09-08T04:17:29;21.60;99.90
76967;DHT22;65904;52.278;20.972;2023-09-08T04:20:15;22.40;99.90
76967;DHT22;65904;52.278;20.972;2023-09-08T04:23:01;22.80;99.90
76967;DHT22;65904;52.278;20.972;2023-09-08T04:25:48;23.10;99.90
76967;DHT22;65904;52.278;20.972;2023-09-08T04:28:35;23.30;99.90
76967;DHT22;65904;52.278;20.972;2023-09-08T04:31:21;23.50;99.90
76967;DHT22;65904;52.278;20.972;2023-09-08T04:34:08;23.60;99.90
76967;DHT22;65904;52.278;20.972;2023-09-08T04:36:54;23.70;99.90
76967;DHT22;65904;52.278;20.972;2023-09-08T04:39:40;23.80;99.90
76967;DHT22;65904;52.278;20.972;2023-09-08T04:42:26;23.80;99.90
76967;DHT22;65904;52.278;20.972;2023-09-08T04:45:13;23.90;99.90
76967;DHT22;65904;52.278;20.972;2023-09-08T04:48:00;23.90;99.90
76967;DHT22;65904;52.278;20.972;2023-09-08T04:50:47;23.80;99.90
76967;DHT22;65904;52.278;20.972;2023-09-08T04:53:34;21.60;99.90
76967;DHT22;65904;52.278;20.972;2023-09-08T04:56:21;21.30;99.90
76967;DHT22;65904;52.278;20.972;2023-09-08T04:59:07;21.30;99.90
76967;DHT22;65904;52.278;20.972;2023-09-08T05:01:54;21.30;99.90
76967;DHT22;65904;52.278;20.972;2023-09-08T05:04:41;21.30;99.90
76967;DHT22;65904;52.278;20.972;2023-09-08T05:07:28;21.20;99.90
76967;DHT22;65904;52.278;20.972;2023-09-08T05:10:15;21.30;99.90
76967;DHT22;65904;52.278;20.972;2023-09-08T05:13:01;21.30;99.90
76967;DHT22;65904;52.278;20.972;2023-09-08T05:15:47;21.30;99.90
76967;DHT22;65904;52.278;20.972;2023-09-08T05:18:35;21.40;99.90
76967;DHT22;65904;52.278;20.972;2023-09-08T05:21:22;21.40;99.90
76967;DHT22;65904;52.278;20.972;2023-09-08T05:24:08;21.40;99.90
76967;DHT22;65904;52.278;20.972;2023-09-08T05:26:55;21.40;99.90
76967;DHT22;65904;52.278;20.972;2023-09-08T05:29:41;21.60;99.90
76967;DHT22;65904;52.278;20.972;2023-09-08T05:32:27;21.70;99.90
76967;DHT22;65904;52.278;20.972;2023-09-08T05:35:15;21.80;99.90
76967;DHT22;65904;52.278;20.972;2023-09-08T05:38:01;22.00;99.90
76967;DHT22;65904;52.278;20.972;2023-09-08T05:40:47;22.10;99.90
76967;DHT22;65904;52.278;20.972;2023-09-08T05:43:33;22.20;99.90
76967;DHT22;65904;52.278;20.972;2023-09-08T05:46:19;22.20;99.90
76967;DHT22;65904;52.278;20.972;2023-09-08T05:49:05;22.20;99.90
76967;DHT22;65904;52.278;20.972;2023-09-08T05:51:53;22.30;99.90
76967;DHT22;65904;52.278;20.972;2023-09-08T05:54:39;22.30;99.90
76967;DHT22;65904;52.278;20.972;2023-09-08T05:57:25;22.40;99.90
76967;DHT22;65904;52.278;20.972;2023-09-08T06:00:13;22.40;99.90
76967;DHT22;65904;52.278;20.972;2023-09-08T06:03:00;22.40;99.90
76967;DHT22;65904;52.278;20.972;2023-09-08T06:05:47;22.50;99.90
76967;DHT22;65904;52.278;20.972;2023-09-08T06:08:34;22.60;99.90
76967;DHT22;65904;52.278;20.972;2023-09-08T06:11:21;22.60;99.90
76967;DHT22;65904;52.278;20.972;2023-09-08T06:14:07;22.60;99.90
76967;DHT22;65904;52.278;20.972;2023-09-08T06:16:57;22.60;99.90
76967;DHT22;65904;52.278;20.972;2023-09-08T06:19:43;22.70;99.90
76967;DHT22;65904;52.278;20.972;2023-09-08T06:22:30;22.70;99.90
76967;DHT22;65904;52.278;20.972;2023-09-08T06:25:17;22.80;99.90
76967;DHT22;65904;52.278;20.972;2023-09-08T06:28:04;22.80;99.90
76967;DHT22;65904;52.278;20.972;2023-09-08T06:30:50;22.90;99.90
76967;DHT22;65904;52.278;20.972;2023-09-08T06:33:36;22.90;99.90
76967;DHT22;65904;52.278;20.972;2023-09-08T06:36:23;22.90;99.90
76967;DHT22;65904;52.278;20.972;2023-09-08T06:39:10;22.90;99.90
76967;DHT22;65904;52.278;20.972;2023-09-08T06:41:59;22.90;99.90
76967;DHT22;65904;52.278;20.972;2023-09-08T06:44:45;23.00;99.90
76967;DHT22;65904;52.278;20.972;2023-09-08T06:47:30;23.10;99.90
76967;DHT22;65904;52.278;20.972;2023-09-08T06:50:17;23.10;99.90
76967;DHT22;65904;52.278;20.972;2023-09-08T06:53:03;23.20;99.90
76967;DHT22;65904;52.278;20.972;2023-09-08T06:55:50;23.30;99.90
76967;DHT22;65904;52.278;20.972;2023-09-08T06:58:37;23.30;99.90
76967;DHT22;65904;52.278;20.972;2023-09-08T07:01:23;23.30;99.90
76967;DHT22;65904;52.278;20.972;2023-09-08T07:04:10;23.40;99.90
76967;DHT22;65904;52.278;20.972;2023-09-08T07:06:56;23.50;99.90
76967;DHT22;65904;52.278;20.972;2023-09-08T07:09:43;23.60;99.90
76967;DHT22;65904;52.278;20.972;2023-09-08T07:12:29;23.60;99.90
76967;DHT22;65904;52.278;20.972;2023-09-08T07:15:16;23.70;99.90
76967;DHT22;65904;52.278;20.972;2023-09-08T07:18:03;23.70;99.90
76967;DHT22;65904;52.278;20.972;2023-09-08T07:20:48;23.70;99.90
76967;DHT22;65904;52.278;20.972;2023-09-08T07:23:37;23.70;99.90
76967;DHT22;65904;52.278;20.972;2023-09-08T07:26:24;23.80;99.90
76967;DHT22;65904;52.278;20.972;2023-09-08T07:29:11;23.90;99.90
76967;DHT22;65904;52.278;20.972;2023-09-08T07:31:58;24.00;99.90
76967;DHT22;65904;52.278;20.972;2023-09-08T07:34:44;24.00;99.90
76967;DHT22;65904;52.278;20.972;2023-09-08T07:37:31;24.00;99.90
76967;DHT22;65904;52.278;20.972;2023-09-08T07:40:17;24.20;99.90
76967;DHT22;65904;52.278;20.972;2023-09-08T07:43:03;24.20;99.90
76967;DHT22;65904;52.278;20.972;2023-09-08T07:45:49;24.30;99.90
76967;DHT22;65904;52.278;20.972;2023-09-08T07:48:37;24.40;99.90
76967;DHT22;65904;52.278;20.972;2023-09-08T07:51:23;24.40;99.90
76967;DHT22;65904;52.278;20.972;2023-09-08T07:54:09;24.40;99.90
76967;DHT22;65904;52.278;20.972;2023-09-08T07:56:55;24.50;99.90
76967;DHT22;65904;52.278;20.972;2023-09-08T07:59:41;24.60;99.90
76967;DHT22;65904;52.278;20.972;2023-09-08T08:02:28;24.60;99.90
76967;DHT22;65904;52.278;20.972;2023-09-08T08:05:16;24.70;99.90
76967;DHT22;65904;52.278;20.972;2023-09-08T08:08:02;24.80;99.90
76967;DHT22;65904;52.278;20.972;2023-09-08T08:10:48;24.90;99.90
76967;DHT22;65904;52.278;20.972;2023-09-08T08:13:35;25.00;99.90
76967;DHT22;65904;52.278;20.972;2023-09-08T08:16:21;25.10;99.90
76967;DHT22;65904;52.278;20.972;2023-09-08T08:19:07;25.20;99.90
76967;DHT22;65904;52.278;20.972;2023-09-08T08:21:54;25.20;99.90
76967;DHT22;65904;52.278;20.972;2023-09-08T08:24:41;25.40;99.90
76967;DHT22;65904;52.278;20.972;2023-09-08T08:27:27;25.40;99.90
76967;DHT22;65904;52.278;20.972;2023-09-08T08:30:13;25.50;99.90
76967;DHT22;65904;52.278;20.972;2023-09-08T08:33:02;25.60;99.90
76967;DHT22;65904;52.278;20.972;2023-09-08T08:35:49;25.90;99.90
76967;DHT22;65904;52.278;20.972;2023-09-08T08:38:36;26.00;99.90
76967;DHT22;65904;52.278;20.972;2023-09-08T08:41:22;26.20;99.90
76967;DHT22;65904;52.278;20.972;2023-09-08T08:44:09;26.30;99.90
76967;DHT22;65904;52.278;20.972;2023-09-08T08:46:55;26.50;99.90
76967;DHT22;65904;52.278;20.972;2023-09-08T08:49:41;26.70;99.90
76967;DHT22;65904;52.278;20.972;2023-09-08T08:52:30;26.80;99.90
76967;DHT22;65904;52.278;20.972;2023-09-08T08:55:17;27.00;99.90
76967;DHT22;65904;52.278;20.972;2023-09-08T08:58:04;27.10;99.90
76967;DHT22;65904;52.278;20.972;2023-09-08T09:00:50;27.20;99.90
76967;DHT22;65904;52.278;20.972;2023-09-08T09:03:38;27.20;99.90
76967;DHT22;65904;52.278;20.972;2023-09-08T09:06:24;27.30;99.90
76967;DHT22;65904;52.278;20.972;2023-09-08T09:09:10;27.50;99.90
76967;DHT22;65904;52.278;20.972;2023-09-08T09:11:57;27.50;99.90
76967;DHT22;65904;52.278;20.972;2023-09-08T09:14:46;27.50;99.90
76967;DHT22;65904;52.278;20.972;2023-09-08T09:17:32;27.60;99.90
76967;DHT22;65904;52.278;20.972;2023-09-08T09:20:19;27.60;99.90
76967;DHT22;65904;52.278;20.972;2023-09-08T09:23:06;27.50;99.90
76967;DHT22;65904;52.278;20.972;2023-09-08T09:25:52;27.40;99.90
76967;DHT22;65904;52.278;20.972;2023-09-08T09:28:42;27.50;99.90
76967;DHT22;65904;52.278;20.972;2023-09-08T09:31:32;27.40;99.90
76967;DHT22;65904;52.278;20.972;2023-09-08T09:34:18;27.30;99.90
76967;DHT22;65904;52.278;20.972;2023-09-08T09:37:05;27.10;99.90
76967;DHT22;65904;52.278;20.972;2023-09-08T09:39:52;27.00;99.90
76967;DHT22;65904;52.278;20.972;2023-09-08T09:42:38;26.90;99.90
76967;DHT22;65904;52.278;20.972;2023-09-08T09:45:26;27.10;99.90
76967;DHT22;65904;52.278;20.972;2023-09-08T09:48:12;27.10;99.90
76967;DHT22;65904;52.278;20.972;2023-09-08T09:50:58;27.10;99.90
76967;DHT22;65904;52.278;20.972;2023-09-08T09:53:44;27.10;99.90
76967;DHT22;65904;52.278;20.972;2023-09-08T09:56:32;27.20;99.90
76967;DHT22;65904;52.278;20.972;2023-09-08T09:59:18;27.10;99.90
76967;DHT22;65904;52.278;20.972;2023-09-08T10:02:06;27.10;99.90
76967;DHT22;65904;52.278;20.972;2023-09-08T10:04:55;27.10;99.90
76967;DHT22;65904;52.278;20.972;2023-09-08T10:07:41;27.10;99.90
76967;DHT22;65904;52.278;20.972;2023-09-08T10:10:28;27.00;99.90
76967;DHT22;65904;52.278;20.972;2023-09-08T10:13:15;27.00;99.90
76967;DHT22;65904;52.278;20.972;2023-09-08T10:16:02;27.10;99.90
76967;DHT22;65904;52.278;20.972;2023-09-08T10:18:50;27.10;99.90
76967;DHT22;65904;52.278;20.972;2023-09-08T10:21:39;27.10;99.90
76967;DHT22;65904;52.278;20.972;2023-09-08T10:24:26;27.10;99.90
76967;DHT22;65904;52.278;20.972;2023-09-08T10:27:13;27.10;99.90
76967;DHT22;65904;52.278;20.972;2023-09-08T10:30:03;27.00;99.90
76967;DHT22;65904;52.278;20.972;2023-09-08T10:32:50;27.00;99.40
76967;DHT22;65904;52.278;20.972;2023-09-08T10:35:38;27.10;99.80
76967;DHT22;65904;52.278;20.972;2023-09-08T10:38:24;27.20;99.60
76967;DHT22;65904;52.278;20.972;2023-09-08T10:41:26;27.40;99.30
76967;DHT22;65904;52.278;20.972;2023-09-08T10:44:14;27.70;98.60
76967;DHT22;65904;52.278;20.972;2023-09-08T10:47:01;28.00;96.60
76967;DHT22;65904;52.278;20.972;2023-09-08T10:49:47;28.20;97.50
76967;DHT22;65904;52.278;20.972;2023-09-08T10:52:36;28.30;97.10
76967;DHT22;65904;52.278;20.972;2023-09-08T10:55:24;28.40;96.60
76967;DHT22;65904;52.278;20.972;2023-09-08T10:58:20;28.80;95.60
76967;DHT22;65904;52.278;20.972;2023-09-08T11:01:07;28.90;95.70
76967;DHT22;65904;52.278;20.972;2023-09-08T11:03:53;29.00;95.20
76967;DHT22;65904;52.278;20.972;2023-09-08T11:06:39;29.20;94.90
76967;DHT22;65904;52.278;20.972;2023-09-08T11:09:27;29.20;94.60
76967;DHT22;65904;52.278;20.972;2023-09-08T11:12:13;29.50;94.20
76967;DHT22;65904;52.278;20.972;2023-09-08T11:15:02;29.70;93.70
76967;DHT22;65904;52.278;20.972;2023-09-08T11:17:49;29.90;93.20
76967;DHT22;65904;52.278;20.972;2023-09-08T11:20:36;29.60;92.90
76967;DHT22;65904;52.278;20.972;2023-09-08T11:23:22;29.60;92.80
76967;DHT22;65904;52.278;20.972;2023-09-08T11:26:11;29.70;92.70
76967;DHT22;65904;52.278;20.972;2023-09-08T11:28:58;29.50;92.60
76967;DHT22;65904;52.278;20.972;2023-09-08T11:31:44;29.20;93.20
76967;DHT22;65904;52.278;20.972;2023-09-08T11:34:30;29.70;92.90
76967;DHT22;65904;52.278;20.972;2023-09-08T11:37:17;30.20;92.00
76967;DHT22;65904;52.278;20.972;2023-09-08T11:40:03;30.40;91.40
76967;DHT22;65904;52.278;20.972;2023-09-08T11:42:57;30.80;90.60
76967;DHT22;65904;52.278;20.972;2023-09-08T11:45:44;31.00;90.20
76967;DHT22;65904;52.278;20.972;2023-09-08T11:48:29;31.20;90.00
76967;DHT22;65904;52.278;20.972;2023-09-08T11:51:16;31.40;89.10
76967;DHT22;65904;52.278;20.972;2023-09-08T11:54:02;31.40;88.70
76967;DHT22;65904;52.278;20.972;2023-09-08T11:56:49;31.40;88.40
76967;DHT22;65904;52.278;20.972;2023-09-08T11:59:36;31.50;88.10
76967;DHT22;65904;52.278;20.972;2023-09-08T12:02:22;31.60;87.80
76967;DHT22;65904;52.278;20.972;2023-09-08T12:05:11;31.20;87.70
76967;DHT22;65904;52.278;20.972;2023-09-08T12:07:57;30.90;87.50
76967;DHT22;65904;52.278;20.972;2023-09-08T12:10:43;30.30;88.80
76967;DHT22;65904;52.278;20.972;2023-09-08T12:13:29;29.90;90.20
76967;DHT22;65904;52.278;20.972;2023-09-08T12:16:19;30.10;90.20
76967;DHT22;65904;52.278;20.972;2023-09-08T12:19:07;30.60;89.70
76967;DHT22;65904;52.278;20.972;2023-09-08T12:21:54;30.80;88.50
76967;DHT22;65904;52.278;20.972;2023-09-08T12:24:46;30.90;87.80
76967;DHT22;65904;52.278;20.972;2023-09-08T12:27:35;31.00;87.10
76967;DHT22;65904;52.278;20.972;2023-09-08T12:30:22;31.00;87.20
76967;DHT22;65904;52.278;20.972;2023-09-08T12:33:15;31.00;87.00
76967;DHT22;65904;52.278;20.972;2023-09-08T12:36:09;31.00;86.80
76967;DHT22;65904;52.278;20.972;2023-09-08T12:38:55;31.00;86.70
76967;DHT22;65904;52.278;20.972;2023-09-08T12:41:41;30.90;86.60
76967;DHT22;65904;52.278;20.972;2023-09-08T12:44:27;30.90;86.50
76967;DHT22;65904;52.278;20.972;2023-09-08T12:47:13;30.80;86.00
76967;DHT22;65904;52.278;20.972;2023-09-08T12:50:00;30.60;86.50
76967;DHT22;65904;52.278;20.972;2023-09-08T12:52:46;30.60;87.00
76967;DHT22;65904;52.278;20.972;2023-09-08T12:55:32;30.70;86.80
76967;DHT22;65904;52.278;20.972;2023-09-08T12:58:18;30.50;86.70
76967;DHT22;65904;52.278;20.972;2023-09-08T13:01:05;30.50;86.80
76967;DHT22;65904;52.278;20.972;2023-09-08T13:03:51;30.50;86.70
76967;DHT22;65904;52.278;20.972;2023-09-08T13:06:38;30.50;86.90
76967;DHT22;65904;52.278;20.972;2023-09-08T13:09:25;30.40;86.90
76967;DHT22;65904;52.278;20.972;2023-09-08T13:12:10;30.40;87.00
76967;DHT22;65904;52.278;20.972;2023-09-08T13:14:58;30.40;87.00
76967;DHT22;65904;52.278;20.972;2023-09-08T13:17:43;30.40;87.00
76967;DHT22;65904;52.278;20.972;2023-09-08T13:20:29;30.40;87.00
76967;DHT22;65904;52.278;20.972;2023-09-08T13:23:17;30.40;87.00
76967;DHT22;65904;52.278;20.972;2023-09-08T13:26:03;30.30;87.10
76967;DHT22;65904;52.278;20.972;2023-09-08T13:28:49;30.30;87.20
76967;DHT22;65904;52.278;20.972;2023-09-08T13:31:34;30.30;87.00
76967;DHT22;65904;52.278;20.972;2023-09-08T13:34:20;30.40;87.30
76967;DHT22;65904;52.278;20.972;2023-09-08T13:37:07;30.20;87.20
76967;DHT22;65904;52.278;20.972;2023-09-08T13:39:54;30.20;87.60
76967;DHT22;65904;52.278;20.972;2023-09-08T13:42:40;30.20;87.60
76967;DHT22;65904;52.278;20.972;2023-09-08T13:45:26;30.30;87.50
76967;DHT22;65904;52.278;20.972;2023-09-08T13:48:12;30.20;87.40
76967;DHT22;65904;52.278;20.972;2023-09-08T13:51:00;30.20;87.60
76967;DHT22;65904;52.278;20.972;2023-09-08T13:53:47;30.30;87.60
76967;DHT22;65904;52.278;20.972;2023-09-08T13:56:34;30.40;87.30
76967;DHT22;65904;52.278;20.972;2023-09-08T13:59:20;30.40;87.10
76967;DHT22;65904;52.278;20.972;2023-09-08T14:02:06;30.60;86.60
76967;DHT22;65904;52.278;20.972;2023-09-08T14:04:52;30.80;85.90
76967;DHT22;65904;52.278;20.972;2023-09-08T14:07:38;30.90;85.50
76967;DHT22;65904;52.278;20.972;2023-09-08T14:10:24;30.80;85.40
76967;DHT22;65904;52.278;20.972;2023-09-08T14:13:11;30.80;85.30
76967;DHT22;65904;52.278;20.972;2023-09-08T14:15:57;30.60;85.80
76967;DHT22;65904;52.278;20.972;2023-09-08T14:18:43;30.50;85.70
76967;DHT22;65904;52.278;20.972;2023-09-08T14:21:29;30.50;85.60
76967;DHT22;65904;52.278;20.972;2023-09-08T14:24:16;30.50;85.30
76967;DHT22;65904;52.278;20.972;2023-09-08T14:27:02;30.80;84.90
76967;DHT22;65904;52.278;20.972;2023-09-08T14:29:50;33.90;79.60
76967;DHT22;65904;52.278;20.972;2023-09-08T14:32:37;37.40;71.90
76967;DHT22;65904;52.278;20.972;2023-09-08T14:35:22;37.10;67.80
76967;DHT22;65904;52.278;20.972;2023-09-08T14:38:08;36.40;66.80
76967;DHT22;65904;52.278;20.972;2023-09-08T14:40:55;36.10;66.40
76967;DHT22;65904;52.278;20.972;2023-09-08T14:43:41;35.90;68.20
76967;DHT22;65904;52.278;20.972;2023-09-08T14:46:29;35.90;66.20
76967;DHT22;65904;52.278;20.972;2023-09-08T14:49:15;36.10;67.10
76967;DHT22;65904;52.278;20.972;2023-09-08T14:52:00;36.20;66.90
76967;DHT22;65904;52.278;20.972;2023-09-08T14:54:47;36.20;66.60
76967;DHT22;65904;52.278;20.972;2023-09-08T14:57:33;35.90;66.80
76967;DHT22;65904;52.278;20.972;2023-09-08T15:00:19;35.40;66.70
76967;DHT22;65904;52.278;20.972;2023-09-08T15:03:07;35.00;67.70
76967;DHT22;65904;52.278;20.972;2023-09-08T15:05:54;34.60;68.50
76967;DHT22;65904;52.278;20.972;2023-09-08T15:08:39;34.60;69.20
76967;DHT22;65904;52.278;20.972;2023-09-08T15:11:28;34.70;68.60
76967;DHT22;65904;52.278;20.972;2023-09-08T15:14:14;34.80;68.60
76967;DHT22;65904;52.278;20.972;2023-09-08T15:16:59;34.40;68.10
76967;DHT22;65904;52.278;20.972;2023-09-08T15:19:48;34.30;69.40
76967;DHT22;65904;52.278;20.972;2023-09-08T15:22:35;34.10;70.20
76967;DHT22;65904;52.278;20.972;2023-09-08T15:25:20;34.10;67.90
76967;DHT22;65904;52.278;20.972;2023-09-08T15:28:07;34.00;70.30
76967;DHT22;65904;52.278;20.972;2023-09-08T15:30:53;34.10;69.70
76967;DHT22;65904;52.278;20.972;2023-09-08T15:33:40;34.00;71.40
76967;DHT22;65904;52.278;20.972;2023-09-08T15:36:27;34.00;68.40
76967;DHT22;65904;52.278;20.972;2023-09-08T15:39:14;33.80;72.30
76967;DHT22;65904;52.278;20.972;2023-09-08T15:42:00;33.60;73.60
76967;DHT22;65904;52.278;20.972;2023-09-08T15:44:46;33.50;72.50
76967;DHT22;65904;52.278;20.972;2023-09-08T15:47:32;33.30;74.40
76967;DHT22;65904;52.278;20.972;2023-09-08T15:50:18;33.10;74.50
76967;DHT22;65904;52.278;20.972;2023-09-08T15:53:06;32.90;73.70
76967;DHT22;65904;52.278;20.972;2023-09-08T15:55:52;32.80;74.20
76967;DHT22;65904;52.278;20.972;2023-09-08T15:58:38;32.60;76.10
76967;DHT22;65904;52.278;20.972;2023-09-08T16:01:24;32.60;72.70
76967;DHT22;65904;52.278;20.972;2023-09-08T16:04:10;32.40;75.40
76967;DHT22;65904;52.278;20.972;2023-09-08T16:06:56;32.20;77.70
76967;DHT22;65904;52.278;20.972;2023-09-08T16:09:43;32.10;74.20
76967;DHT22;65904;52.278;20.972;2023-09-08T16:12:29;31.90;75.80
76967;DHT22;65904;52.278;20.972;2023-09-08T16:15:16;31.80;77.30
76967;DHT22;65904;52.278;20.972;2023-09-08T16:18:02;31.70;75.00
76967;DHT22;65904;52.278;20.972;2023-09-08T16:20:49;31.60;74.40
76967;DHT22;65904;52.278;20.972;2023-09-08T16:23:35;31.40;74.60
76967;DHT22;65904;52.278;20.972;2023-09-08T16:26:23;31.10;74.80
76967;DHT22;65904;52.278;20.972;2023-09-08T16:29:09;30.90;74.30
76967;DHT22;65904;52.278;20.972;2023-09-08T16:31:55;30.50;74.90
76967;DHT22;65904;52.278;20.972;2023-09-08T16:34:41;30.30;75.80
76967;DHT22;65904;52.278;20.972;2023-09-08T16:37:27;30.00;76.10
76967;DHT22;65904;52.278;20.972;2023-09-08T16:40:13;29.90;77.40
76967;DHT22;65904;52.278;20.972;2023-09-08T16:43:01;29.70;77.50
76967;DHT22;65904;52.278;20.972;2023-09-08T16:45:48;29.50;78.00
76967;DHT22;65904;52.278;20.972;2023-09-08T16:48:34;29.20;78.10
76967;DHT22;65904;52.278;20.972;2023-09-08T16:51:20;29.00;78.90
76967;DHT22;65904;52.278;20.972;2023-09-08T16:54:06;28.80;79.40
76967;DHT22;65904;52.278;20.972;2023-09-08T16:56:53;28.60;80.00
76967;DHT22;65904;52.278;20.972;2023-09-08T16:59:40;28.40;80.70
76967;DHT22;65904;52.278;20.972;2023-09-08T17:02:26;28.30;81.30
76967;DHT22;65904;52.278;20.972;2023-09-08T17:05:14;27.90;82.20
76967;DHT22;65904;52.278;20.972;2023-09-08T17:08:02;27.80;83.40
76967;DHT22;65904;52.278;20.972;2023-09-08T17:10:48;27.60;85.00
76967;DHT22;65904;52.278;20.972;2023-09-08T17:13:34;27.50;85.50
76967;DHT22;65904;52.278;20.972;2023-09-08T17:16:22;27.40;86.20